Archival Weather

Chicago O'Hare International

Chicago, Illinois (KORD)

Report from: Tuesday, September 19, 2023 7:51 PM CDT
Current time: Monday, June 17, 2024 4:30 AM CDT

Current weather – Weather history – Daily summaries
Weather forecast

Present weatherLight rain
Temperature18.9°C (66.0°F)
Dew point13.9°C (57.0°F)
Winds 12 kts (6.2 m/s, 13.8 mph) South-Southeast (160°)
Visibility10 mi. (16.1 km)
Clouds Scattered clouds 5,500 ft. (1,676 m)
Ceiling: Broken clouds 8,000 ft. (2,438 m)
Overcast 11,000 ft. (3,353 m)
Altimeter29.95 in.Hg (1014 mB)
Precipitiation0.05 in. (1 mm)
Relative humidity73 %
Density altitude646 ft. (197 m)
Sea-level pressure101.4 kPa (1014 mB, 29.95 in.Hg)
Remarks Automated weather observing station with precipitation discriminator
Flight conditions Visual Meteorological Conditions
Raw dataKORD 200051Z 16012KT 10SM -RA SCT055 BKN080 OVC110 19/14 A2995 RMK AO2 SLP142 P0005 T01890139
An error has occurred. This application may no longer respond until reloaded. Reload 🗙